sensor_id;sensor_type;location;lat;lon;timestamp;P1;durP1;ratioP1;P2;durP2;ratioP2
15055;SDS011;7626;42.674;23.284;2024-03-02T00:00:43;23.50;;;12.73;;
15055;SDS011;7626;42.674;23.284;2024-03-02T00:03:11;18.13;;;12.67;;
15055;SDS011;7626;42.674;23.284;2024-03-02T00:05:40;19.03;;;12.83;;
15055;SDS011;7626;42.674;23.284;2024-03-02T00:08:07;19.37;;;12.10;;
15055;SDS011;7626;42.674;23.284;2024-03-02T00:10:36;20.77;;;13.30;;
15055;SDS011;7626;42.674;23.284;2024-03-02T00:13:05;19.30;;;12.47;;
15055;SDS011;7626;42.674;23.284;2024-03-02T00:15:41;18.63;;;11.77;;
15055;SDS011;7626;42.674;23.284;2024-03-02T00:18:09;18.40;;;11.93;;
15055;SDS011;7626;42.674;23.284;2024-03-02T00:20:37;18.70;;;12.23;;
15055;SDS011;7626;42.674;23.284;2024-03-02T00:23:05;19.73;;;12.60;;
15055;SDS011;7626;42.674;23.284;2024-03-02T00:25:38;18.07;;;11.47;;
15055;SDS011;7626;42.674;23.284;2024-03-02T00:28:10;19.27;;;11.40;;
15055;SDS011;7626;42.674;23.284;2024-03-02T00:30:43;19.87;;;11.83;;
15055;SDS011;7626;42.674;23.284;2024-03-02T00:33:12;19.10;;;12.17;;
15055;SDS011;7626;42.674;23.284;2024-03-02T00:35:39;20.07;;;12.60;;
15055;SDS011;7626;42.674;23.284;2024-03-02T00:38:07;21.30;;;13.10;;
15055;SDS011;7626;42.674;23.284;2024-03-02T00:40:33;22.93;;;13.70;;
15055;SDS011;7626;42.674;23.284;2024-03-02T00:43:00;21.60;;;12.80;;
15055;SDS011;7626;42.674;23.284;2024-03-02T00:45:28;21.63;;;13.23;;
15055;SDS011;7626;42.674;23.284;2024-03-02T00:47:55;23.43;;;14.67;;
15055;SDS011;7626;42.674;23.284;2024-03-02T00:50:22;23.63;;;14.47;;
15055;SDS011;7626;42.674;23.284;2024-03-02T00:52:48;21.40;;;14.10;;
15055;SDS011;7626;42.674;23.284;2024-03-02T00:55:16;21.37;;;13.57;;
15055;SDS011;7626;42.674;23.284;2024-03-02T00:57:43;19.27;;;13.73;;
15055;SDS011;7626;42.674;23.284;2024-03-02T01:00:10;21.77;;;14.20;;
15055;SDS011;7626;42.674;23.284;2024-03-02T01:02:40;21.63;;;13.70;;
15055;SDS011;7626;42.674;23.284;2024-03-02T01:05:07;22.37;;;13.73;;
15055;SDS011;7626;42.674;23.284;2024-03-02T01:07:34;21.43;;;14.40;;
15055;SDS011;7626;42.674;23.284;2024-03-02T01:10:00;21.77;;;14.40;;
15055;SDS011;7626;42.674;23.284;2024-03-02T01:12:28;22.73;;;14.37;;
15055;SDS011;7626;42.674;23.284;2024-03-02T01:14:55;20.50;;;13.40;;
15055;SDS011;7626;42.674;23.284;2024-03-02T01:17:22;20.40;;;12.93;;
15055;SDS011;7626;42.674;23.284;2024-03-02T01:19:49;21.50;;;13.47;;
15055;SDS011;7626;42.674;23.284;2024-03-02T01:22:15;21.70;;;13.60;;
15055;SDS011;7626;42.674;23.284;2024-03-02T01:24:45;20.57;;;13.20;;
15055;SDS011;7626;42.674;23.284;2024-03-02T01:27:11;20.67;;;13.73;;
15055;SDS011;7626;42.674;23.284;2024-03-02T01:29:39;23.33;;;14.23;;
15055;SDS011;7626;42.674;23.284;2024-03-02T01:32:06;20.83;;;13.53;;
15055;SDS011;7626;42.674;23.284;2024-03-02T01:34:33;19.00;;;13.67;;
15055;SDS011;7626;42.674;23.284;2024-03-02T01:36:59;21.03;;;14.07;;
15055;SDS011;7626;42.674;23.284;2024-03-02T01:39:26;23.30;;;14.37;;
15055;SDS011;7626;42.674;23.284;2024-03-02T01:41:52;21.60;;;14.67;;
15055;SDS011;7626;42.674;23.284;2024-03-02T01:44:19;19.93;;;13.43;;
15055;SDS011;7626;42.674;23.284;2024-03-02T01:46:49;26.03;;;16.50;;
15055;SDS011;7626;42.674;23.284;2024-03-02T01:49:16;25.47;;;16.60;;
15055;SDS011;7626;42.674;23.284;2024-03-02T01:51:43;22.67;;;13.83;;
15055;SDS011;7626;42.674;23.284;2024-03-02T01:54:11;23.17;;;14.10;;
15055;SDS011;7626;42.674;23.284;2024-03-02T01:56:37;21.47;;;14.20;;
15055;SDS011;7626;42.674;23.284;2024-03-02T01:59:04;21.60;;;13.33;;
15055;SDS011;7626;42.674;23.284;2024-03-02T02:01:31;19.87;;;12.63;;
15055;SDS011;7626;42.674;23.284;2024-03-02T02:03:59;21.37;;;12.43;;
15055;SDS011;7626;42.674;23.284;2024-03-02T02:06:25;19.67;;;12.63;;
15055;SDS011;7626;42.674;23.284;2024-03-02T02:08:52;21.93;;;12.87;;
15055;SDS011;7626;42.674;23.284;2024-03-02T02:11:19;18.33;;;12.60;;
15055;SDS011;7626;42.674;23.284;2024-03-02T02:13:45;18.50;;;12.07;;
15055;SDS011;7626;42.674;23.284;2024-03-02T02:16:12;18.43;;;12.43;;
15055;SDS011;7626;42.674;23.284;2024-03-02T02:18:39;18.07;;;11.83;;
15055;SDS011;7626;42.674;23.284;2024-03-02T02:21:07;19.17;;;11.83;;
15055;SDS011;7626;42.674;23.284;2024-03-02T02:23:35;19.63;;;12.10;;
15055;SDS011;7626;42.674;23.284;2024-03-02T02:26:02;17.73;;;12.13;;
15055;SDS011;7626;42.674;23.284;2024-03-02T02:28:29;20.70;;;12.73;;
15055;SDS011;7626;42.674;23.284;2024-03-02T02:30:55;19.67;;;13.40;;
15055;SDS011;7626;42.674;23.284;2024-03-02T02:33:23;22.63;;;13.37;;
15055;SDS011;7626;42.674;23.284;2024-03-02T02:35:49;21.43;;;14.10;;
15055;SDS011;7626;42.674;23.284;2024-03-02T02:38:16;20.93;;;14.10;;
15055;SDS011;7626;42.674;23.284;2024-03-02T02:40:44;22.53;;;13.27;;
15055;SDS011;7626;42.674;23.284;2024-03-02T02:43:10;22.60;;;15.07;;
15055;SDS011;7626;42.674;23.284;2024-03-02T02:45:38;24.80;;;16.10;;
15055;SDS011;7626;42.674;23.284;2024-03-02T02:48:05;27.90;;;16.83;;
15055;SDS011;7626;42.674;23.284;2024-03-02T02:50:31;27.90;;;17.23;;
15055;SDS011;7626;42.674;23.284;2024-03-02T02:52:58;25.70;;;16.53;;
15055;SDS011;7626;42.674;23.284;2024-03-02T02:55:24;27.30;;;17.00;;
15055;SDS011;7626;42.674;23.284;2024-03-02T02:57:53;26.40;;;16.67;;
15055;SDS011;7626;42.674;23.284;2024-03-02T03:00:19;26.70;;;17.00;;
15055;SDS011;7626;42.674;23.284;2024-03-02T03:02:48;28.03;;;17.53;;
15055;SDS011;7626;42.674;23.284;2024-03-02T03:05:15;29.97;;;17.00;;
15055;SDS011;7626;42.674;23.284;2024-03-02T03:07:42;28.40;;;17.43;;
15055;SDS011;7626;42.674;23.284;2024-03-02T03:10:09;26.00;;;17.27;;
15055;SDS011;7626;42.674;23.284;2024-03-02T03:12:35;26.23;;;16.53;;
15055;SDS011;7626;42.674;23.284;2024-03-02T03:15:03;25.27;;;17.30;;
15055;SDS011;7626;42.674;23.284;2024-03-02T03:17:32;29.53;;;19.10;;
15055;SDS011;7626;42.674;23.284;2024-03-02T03:19:58;28.50;;;18.30;;
15055;SDS011;7626;42.674;23.284;2024-03-02T03:22:26;29.13;;;18.13;;
15055;SDS011;7626;42.674;23.284;2024-03-02T03:24:52;27.93;;;18.10;;
15055;SDS011;7626;42.674;23.284;2024-03-02T03:27:19;29.17;;;18.40;;
15055;SDS011;7626;42.674;23.284;2024-03-02T03:29:46;29.97;;;18.10;;
15055;SDS011;7626;42.674;23.284;2024-03-02T03:32:14;29.07;;;18.13;;
15055;SDS011;7626;42.674;23.284;2024-03-02T03:34:41;29.33;;;17.50;;
15055;SDS011;7626;42.674;23.284;2024-03-02T03:37:08;28.93;;;18.07;;
15055;SDS011;7626;42.674;23.284;2024-03-02T03:39:35;26.30;;;17.03;;
15055;SDS011;7626;42.674;23.284;2024-03-02T03:42:02;27.47;;;17.93;;
15055;SDS011;7626;42.674;23.284;2024-03-02T03:44:28;27.53;;;17.13;;
15055;SDS011;7626;42.674;23.284;2024-03-02T03:46:55;32.03;;;18.63;;
15055;SDS011;7626;42.674;23.284;2024-03-02T03:49:23;29.30;;;17.30;;
15055;SDS011;7626;42.674;23.284;2024-03-02T03:51:50;31.67;;;17.73;;
15055;SDS011;7626;42.674;23.284;2024-03-02T03:54:16;32.63;;;18.67;;
15055;SDS011;7626;42.674;23.284;2024-03-02T03:56:43;26.43;;;17.43;;
15055;SDS011;7626;42.674;23.284;2024-03-02T03:59:09;29.17;;;18.60;;
15055;SDS011;7626;42.674;23.284;2024-03-02T04:01:37;32.03;;;19.67;;
15055;SDS011;7626;42.674;23.284;2024-03-02T04:04:03;30.17;;;19.07;;
15055;SDS011;7626;42.674;23.284;2024-03-02T04:06:31;31.30;;;18.53;;
15055;SDS011;7626;42.674;23.284;2024-03-02T04:08:58;29.00;;;18.97;;
15055;SDS011;7626;42.674;23.284;2024-03-02T04:11:24;29.23;;;18.47;;
15055;SDS011;7626;42.674;23.284;2024-03-02T04:13:51;28.20;;;18.47;;
15055;SDS011;7626;42.674;23.284;2024-03-02T04:16:18;30.40;;;18.37;;
15055;SDS011;7626;42.674;23.284;2024-03-02T04:18:44;27.47;;;17.13;;
15055;SDS011;7626;42.674;23.284;2024-03-02T04:21:10;28.90;;;18.33;;
15055;SDS011;7626;42.674;23.284;2024-03-02T04:23:38;29.70;;;18.43;;
15055;SDS011;7626;42.674;23.284;2024-03-02T04:26:04;28.33;;;19.07;;
15055;SDS011;7626;42.674;23.284;2024-03-02T04:28:31;28.57;;;18.43;;
15055;SDS011;7626;42.674;23.284;2024-03-02T04:30:58;26.97;;;17.30;;
15055;SDS011;7626;42.674;23.284;2024-03-02T04:33:24;28.77;;;18.47;;
15055;SDS011;7626;42.674;23.284;2024-03-02T04:35:51;28.57;;;18.83;;
15055;SDS011;7626;42.674;23.284;2024-03-02T04:38:17;28.03;;;17.60;;
15055;SDS011;7626;42.674;23.284;2024-03-02T04:40:45;32.03;;;18.93;;
15055;SDS011;7626;42.674;23.284;2024-03-02T04:43:12;31.77;;;18.07;;
15055;SDS011;7626;42.674;23.284;2024-03-02T04:45:41;26.70;;;18.53;;
15055;SDS011;7626;42.674;23.284;2024-03-02T04:48:08;30.43;;;18.73;;
15055;SDS011;7626;42.674;23.284;2024-03-02T04:50:34;31.33;;;18.90;;
15055;SDS011;7626;42.674;23.284;2024-03-02T04:53:01;32.10;;;17.67;;
15055;SDS011;7626;42.674;23.284;2024-03-02T04:55:28;29.20;;;18.63;;
15055;SDS011;7626;42.674;23.284;2024-03-02T04:58:25;30.10;;;17.97;;
15055;SDS011;7626;42.674;23.284;2024-03-02T05:00:51;29.77;;;18.30;;
15055;SDS011;7626;42.674;23.284;2024-03-02T05:03:18;31.67;;;18.87;;
15055;SDS011;7626;42.674;23.284;2024-03-02T05:05:44;28.37;;;18.60;;
15055;SDS011;7626;42.674;23.284;2024-03-02T05:08:11;33.67;;;19.60;;
15055;SDS011;7626;42.674;23.284;2024-03-02T05:10:38;29.30;;;17.67;;
15055;SDS011;7626;42.674;23.284;2024-03-02T05:13:05;33.17;;;20.30;;
15055;SDS011;7626;42.674;23.284;2024-03-02T05:15:32;32.77;;;19.10;;
15055;SDS011;7626;42.674;23.284;2024-03-02T05:17:59;30.63;;;19.13;;
15055;SDS011;7626;42.674;23.284;2024-03-02T05:20:27;29.73;;;18.67;;
15055;SDS011;7626;42.674;23.284;2024-03-02T05:22:54;28.87;;;18.07;;
15055;SDS011;7626;42.674;23.284;2024-03-02T05:25:21;31.20;;;18.80;;
15055;SDS011;7626;42.674;23.284;2024-03-02T05:27:48;33.40;;;19.87;;
15055;SDS011;7626;42.674;23.284;2024-03-02T05:30:14;31.87;;;18.70;;
15055;SDS011;7626;42.674;23.284;2024-03-02T05:32:42;28.83;;;18.40;;
15055;SDS011;7626;42.674;23.284;2024-03-02T05:35:09;31.70;;;19.37;;
15055;SDS011;7626;42.674;23.284;2024-03-02T05:37:37;29.47;;;18.73;;
15055;SDS011;7626;42.674;23.284;2024-03-02T05:40:05;28.20;;;18.87;;
15055;SDS011;7626;42.674;23.284;2024-03-02T05:42:32;28.23;;;18.33;;
15055;SDS011;7626;42.674;23.284;2024-03-02T05:44:58;31.73;;;19.50;;
15055;SDS011;7626;42.674;23.284;2024-03-02T05:47:25;32.07;;;19.90;;
15055;SDS011;7626;42.674;23.284;2024-03-02T05:49:54;32.10;;;19.80;;
15055;SDS011;7626;42.674;23.284;2024-03-02T05:52:21;32.73;;;20.37;;
15055;SDS011;7626;42.674;23.284;2024-03-02T05:54:47;29.00;;;18.50;;
15055;SDS011;7626;42.674;23.284;2024-03-02T05:57:14;33.10;;;19.93;;
15055;SDS011;7626;42.674;23.284;2024-03-02T05:59:57;32.07;;;18.77;;
15055;SDS011;7626;42.674;23.284;2024-03-02T06:02:23;30.27;;;18.50;;
15055;SDS011;7626;42.674;23.284;2024-03-02T06:04:50;31.93;;;20.37;;
15055;SDS011;7626;42.674;23.284;2024-03-02T06:07:18;30.03;;;19.57;;
15055;SDS011;7626;42.674;23.284;2024-03-02T06:09:45;31.00;;;20.33;;
15055;SDS011;7626;42.674;23.284;2024-03-02T06:12:13;31.73;;;19.93;;
15055;SDS011;7626;42.674;23.284;2024-03-02T06:14:40;32.53;;;19.00;;
15055;SDS011;7626;42.674;23.284;2024-03-02T06:17:06;32.23;;;20.00;;
15055;SDS011;7626;42.674;23.284;2024-03-02T06:19:33;30.70;;;19.53;;
15055;SDS011;7626;42.674;23.284;2024-03-02T06:22:00;30.27;;;20.00;;
15055;SDS011;7626;42.674;23.284;2024-03-02T06:24:28;31.23;;;19.80;;
15055;SDS011;7626;42.674;23.284;2024-03-02T06:26:54;31.07;;;20.03;;
15055;SDS011;7626;42.674;23.284;2024-03-02T06:29:21;32.90;;;19.27;;
15055;SDS011;7626;42.674;23.284;2024-03-02T06:31:48;33.07;;;20.73;;
15055;SDS011;7626;42.674;23.284;2024-03-02T06:34:14;34.37;;;21.23;;
15055;SDS011;7626;42.674;23.284;2024-03-02T06:36:41;32.03;;;20.43;;
15055;SDS011;7626;42.674;23.284;2024-03-02T06:39:07;33.70;;;21.47;;
15055;SDS011;7626;42.674;23.284;2024-03-02T06:41:36;31.90;;;20.80;;
15055;SDS011;7626;42.674;23.284;2024-03-02T06:44:03;34.93;;;21.33;;
15055;SDS011;7626;42.674;23.284;2024-03-02T06:46:31;32.57;;;21.60;;
15055;SDS011;7626;42.674;23.284;2024-03-02T06:48:58;35.17;;;22.27;;
15055;SDS011;7626;42.674;23.284;2024-03-02T06:51:25;32.13;;;19.50;;
15055;SDS011;7626;42.674;23.284;2024-03-02T06:53:51;28.40;;;18.03;;
15055;SDS011;7626;42.674;23.284;2024-03-02T06:56:18;27.83;;;17.83;;
15055;SDS011;7626;42.674;23.284;2024-03-02T06:58:46;28.33;;;17.63;;
15055;SDS011;7626;42.674;23.284;2024-03-02T07:01:13;27.40;;;17.87;;
15055;SDS011;7626;42.674;23.284;2024-03-02T07:03:40;26.30;;;16.63;;
15055;SDS011;7626;42.674;23.284;2024-03-02T07:06:06;28.97;;;17.60;;
15055;SDS011;7626;42.674;23.284;2024-03-02T07:08:33;29.67;;;17.33;;
15055;SDS011;7626;42.674;23.284;2024-03-02T07:11:00;24.17;;;15.07;;
15055;SDS011;7626;42.674;23.284;2024-03-02T07:13:26;22.10;;;13.80;;
15055;SDS011;7626;42.674;23.284;2024-03-02T07:15:54;24.47;;;14.87;;
15055;SDS011;7626;42.674;23.284;2024-03-02T07:18:47;23.83;;;14.10;;
15055;SDS011;7626;42.674;23.284;2024-03-02T07:21:17;25.43;;;14.33;;
15055;SDS011;7626;42.674;23.284;2024-03-02T07:23:44;23.13;;;14.13;;
15055;SDS011;7626;42.674;23.284;2024-03-02T07:26:13;24.30;;;15.57;;
15055;SDS011;7626;42.674;23.284;2024-03-02T07:28:41;23.27;;;14.97;;
15055;SDS011;7626;42.674;23.284;2024-03-02T07:31:10;27.23;;;16.03;;
15055;SDS011;7626;42.674;23.284;2024-03-02T07:33:37;25.30;;;16.00;;
15055;SDS011;7626;42.674;23.284;2024-03-02T07:36:03;26.60;;;15.80;;
15055;SDS011;7626;42.674;23.284;2024-03-02T07:38:31;26.13;;;14.60;;
15055;SDS011;7626;42.674;23.284;2024-03-02T07:40:57;23.00;;;15.40;;
15055;SDS011;7626;42.674;23.284;2024-03-02T07:43:23;26.93;;;15.70;;
15055;SDS011;7626;42.674;23.284;2024-03-02T07:45:50;24.03;;;14.97;;
15055;SDS011;7626;42.674;23.284;2024-03-02T07:48:18;25.43;;;15.87;;
15055;SDS011;7626;42.674;23.284;2024-03-02T07:50:45;23.50;;;15.67;;
15055;SDS011;7626;42.674;23.284;2024-03-02T07:53:12;30.60;;;15.90;;
15055;SDS011;7626;42.674;23.284;2024-03-02T07:55:39;26.17;;;16.37;;
15055;SDS011;7626;42.674;23.284;2024-03-02T07:58:06;28.33;;;16.77;;
15055;SDS011;7626;42.674;23.284;2024-03-02T08:00:33;24.20;;;15.37;;
15055;SDS011;7626;42.674;23.284;2024-03-02T08:03:00;25.20;;;16.10;;
15055;SDS011;7626;42.674;23.284;2024-03-02T08:05:28;27.73;;;16.67;;
15055;SDS011;7626;42.674;23.284;2024-03-02T08:07:55;27.27;;;16.90;;
15055;SDS011;7626;42.674;23.284;2024-03-02T08:10:21;24.57;;;15.80;;
15055;SDS011;7626;42.674;23.284;2024-03-02T08:12:48;28.33;;;16.40;;
15055;SDS011;7626;42.674;23.284;2024-03-02T08:15:15;26.90;;;16.50;;
15055;SDS011;7626;42.674;23.284;2024-03-02T08:17:41;29.43;;;15.93;;
15055;SDS011;7626;42.674;23.284;2024-03-02T08:20:13;28.87;;;15.93;;
15055;SDS011;7626;42.674;23.284;2024-03-02T08:22:41;29.53;;;16.93;;
15055;SDS011;7626;42.674;23.284;2024-03-02T08:25:08;34.93;;;16.77;;
15055;SDS011;7626;42.674;23.284;2024-03-02T08:27:35;26.67;;;16.07;;
15055;SDS011;7626;42.674;23.284;2024-03-02T08:30:01;31.17;;;17.33;;
15055;SDS011;7626;42.674;23.284;2024-03-02T08:32:31;25.43;;;16.57;;
15055;SDS011;7626;42.674;23.284;2024-03-02T08:34:58;25.07;;;16.30;;
15055;SDS011;7626;42.674;23.284;2024-03-02T08:37:25;23.83;;;15.57;;
15055;SDS011;7626;42.674;23.284;2024-03-02T08:39:53;24.50;;;15.43;;
15055;SDS011;7626;42.674;23.284;2024-03-02T08:42:19;27.53;;;16.63;;
15055;SDS011;7626;42.674;23.284;2024-03-02T08:44:46;25.50;;;16.07;;
15055;SDS011;7626;42.674;23.284;2024-03-02T08:47:13;24.13;;;16.27;;
15055;SDS011;7626;42.674;23.284;2024-03-02T08:49:40;24.93;;;15.47;;
15055;SDS011;7626;42.674;23.284;2024-03-02T08:52:06;26.23;;;16.47;;
15055;SDS011;7626;42.674;23.284;2024-03-02T08:54:33;23.00;;;15.77;;
15055;SDS011;7626;42.674;23.284;2024-03-02T08:57:02;25.10;;;15.33;;
15055;SDS011;7626;42.674;23.284;2024-03-02T08:59:29;23.17;;;15.27;;
15055;SDS011;7626;42.674;23.284;2024-03-02T09:01:56;26.00;;;15.83;;
15055;SDS011;7626;42.674;23.284;2024-03-02T09:04:23;29.17;;;18.93;;
15055;SDS011;7626;42.674;23.284;2024-03-02T09:06:50;25.63;;;16.97;;
15055;SDS011;7626;42.674;23.284;2024-03-02T09:09:17;25.97;;;16.17;;
15055;SDS011;7626;42.674;23.284;2024-03-02T09:11:43;25.10;;;17.00;;
15055;SDS011;7626;42.674;23.284;2024-03-02T09:14:13;25.60;;;16.33;;
15055;SDS011;7626;42.674;23.284;2024-03-02T09:16:40;24.57;;;15.83;;
15055;SDS011;7626;42.674;23.284;2024-03-02T09:19:07;24.27;;;15.80;;
15055;SDS011;7626;42.674;23.284;2024-03-02T09:21:34;24.63;;;15.23;;
15055;SDS011;7626;42.674;23.284;2024-03-02T09:24:01;24.83;;;15.17;;
15055;SDS011;7626;42.674;23.284;2024-03-02T09:26:28;21.37;;;13.30;;
15055;SDS011;7626;42.674;23.284;2024-03-02T09:28:55;25.00;;;14.90;;
15055;SDS011;7626;42.674;23.284;2024-03-02T09:31:23;20.47;;;14.53;;
15055;SDS011;7626;42.674;23.284;2024-03-02T09:33:49;21.10;;;14.90;;
15055;SDS011;7626;42.674;23.284;2024-03-02T09:36:16;21.17;;;13.67;;
15055;SDS011;7626;42.674;23.284;2024-03-02T09:38:43;24.00;;;14.27;;
15055;SDS011;7626;42.674;23.284;2024-03-02T09:41:09;20.60;;;13.90;;
15055;SDS011;7626;42.674;23.284;2024-03-02T09:43:36;21.37;;;14.13;;
15055;SDS011;7626;42.674;23.284;2024-03-02T09:46:04;21.80;;;14.13;;
15055;SDS011;7626;42.674;23.284;2024-03-02T09:48:33;21.47;;;13.37;;
15055;SDS011;7626;42.674;23.284;2024-03-02T09:50:59;24.70;;;13.30;;
15055;SDS011;7626;42.674;23.284;2024-03-02T09:53:27;22.87;;;14.53;;
15055;SDS011;7626;42.674;23.284;2024-03-02T09:55:57;17.73;;;12.73;;
15055;SDS011;7626;42.674;23.284;2024-03-02T09:58:25;21.10;;;13.80;;
15055;SDS011;7626;42.674;23.284;2024-03-02T10:00:51;20.33;;;13.43;;
15055;SDS011;7626;42.674;23.284;2024-03-02T10:03:18;22.17;;;13.40;;
15055;SDS011;7626;42.674;23.284;2024-03-02T10:05:46;22.13;;;13.43;;
15055;SDS011;7626;42.674;23.284;2024-03-02T10:08:13;23.47;;;14.60;;
15055;SDS011;7626;42.674;23.284;2024-03-02T10:10:40;30.73;;;19.57;;
15055;SDS011;7626;42.674;23.284;2024-03-02T10:13:08;26.20;;;17.50;;
15055;SDS011;7626;42.674;23.284;2024-03-02T10:15:35;25.87;;;16.20;;
15055;SDS011;7626;42.674;23.284;2024-03-02T10:18:02;24.90;;;16.27;;
15055;SDS011;7626;42.674;23.284;2024-03-02T10:20:29;22.87;;;15.13;;
15055;SDS011;7626;42.674;23.284;2024-03-02T10:23:01;25.10;;;15.10;;
15055;SDS011;7626;42.674;23.284;2024-03-02T10:25:35;27.47;;;16.50;;
15055;SDS011;7626;42.674;23.284;2024-03-02T10:28:02;26.53;;;16.30;;
15055;SDS011;7626;42.674;23.284;2024-03-02T10:30:31;25.83;;;16.07;;
15055;SDS011;7626;42.674;23.284;2024-03-02T10:32:58;26.17;;;16.40;;
15055;SDS011;7626;42.674;23.284;2024-03-02T10:35:24;26.13;;;16.00;;
15055;SDS011;7626;42.674;23.284;2024-03-02T10:37:52;26.20;;;16.60;;
15055;SDS011;7626;42.674;23.284;2024-03-02T10:40:22;27.27;;;16.90;;
15055;SDS011;7626;42.674;23.284;2024-03-02T10:42:49;27.00;;;16.50;;
15055;SDS011;7626;42.674;23.284;2024-03-02T10:45:16;27.67;;;16.70;;
15055;SDS011;7626;42.674;23.284;2024-03-02T10:47:43;29.43;;;17.47;;
15055;SDS011;7626;42.674;23.284;2024-03-02T10:50:09;29.50;;;18.47;;
15055;SDS011;7626;42.674;23.284;2024-03-02T10:52:36;29.97;;;17.80;;
15055;SDS011;7626;42.674;23.284;2024-03-02T10:55:04;31.50;;;18.53;;
15055;SDS011;7626;42.674;23.284;2024-03-02T10:57:36;38.07;;;19.97;;
15055;SDS011;7626;42.674;23.284;2024-03-02T11:00:07;30.73;;;18.63;;
15055;SDS011;7626;42.674;23.284;2024-03-02T11:02:39;32.07;;;19.13;;
15055;SDS011;7626;42.674;23.284;2024-03-02T11:05:07;28.63;;;17.23;;
15055;SDS011;7626;42.674;23.284;2024-03-02T11:07:37;29.80;;;17.23;;
15055;SDS011;7626;42.674;23.284;2024-03-02T11:10:15;26.07;;;17.17;;
15055;SDS011;7626;42.674;23.284;2024-03-02T11:12:46;28.63;;;17.47;;
15055;SDS011;7626;42.674;23.284;2024-03-02T11:15:16;28.83;;;17.27;;
15055;SDS011;7626;42.674;23.284;2024-03-02T11:17:45;23.53;;;16.13;;
15055;SDS011;7626;42.674;23.284;2024-03-02T11:20:12;30.83;;;17.23;;
15055;SDS011;7626;42.674;23.284;2024-03-02T11:22:39;29.17;;;17.33;;
15055;SDS011;7626;42.674;23.284;2024-03-02T11:25:11;29.17;;;17.07;;
15055;SDS011;7626;42.674;23.284;2024-03-02T11:28:04;28.07;;;16.40;;
15055;SDS011;7626;42.674;23.284;2024-03-02T11:30:49;25.07;;;16.40;;
15055;SDS011;7626;42.674;23.284;2024-03-02T11:33:22;25.23;;;15.70;;
15055;SDS011;7626;42.674;23.284;2024-03-02T11:35:49;23.07;;;15.80;;
15055;SDS011;7626;42.674;23.284;2024-03-02T11:38:16;25.53;;;15.30;;
15055;SDS011;7626;42.674;23.284;2024-03-02T11:40:44;28.63;;;16.97;;
15055;SDS011;7626;42.674;23.284;2024-03-02T11:43:12;25.73;;;15.87;;
15055;SDS011;7626;42.674;23.284;2024-03-02T11:45:38;28.33;;;15.53;;
15055;SDS011;7626;42.674;23.284;2024-03-02T11:48:10;21.63;;;15.10;;
15055;SDS011;7626;42.674;23.284;2024-03-02T11:50:40;22.63;;;15.33;;
15055;SDS011;7626;42.674;23.284;2024-03-02T11:53:08;23.77;;;14.97;;
15055;SDS011;7626;42.674;23.284;2024-03-02T11:55:35;24.07;;;15.93;;
15055;SDS011;7626;42.674;23.284;2024-03-02T11:58:03;25.37;;;16.03;;
15055;SDS011;7626;42.674;23.284;2024-03-02T12:00:31;24.67;;;16.43;;
15055;SDS011;7626;42.674;23.284;2024-03-02T12:03:00;27.30;;;16.30;;
15055;SDS011;7626;42.674;23.284;2024-03-02T12:05:26;29.87;;;17.40;;
15055;SDS011;7626;42.674;23.284;2024-03-02T12:07:55;25.13;;;16.13;;
15055;SDS011;7626;42.674;23.284;2024-03-02T12:10:22;26.33;;;16.50;;
15055;SDS011;7626;42.674;23.284;2024-03-02T12:12:54;24.40;;;15.10;;
15055;SDS011;7626;42.674;23.284;2024-03-02T12:15:22;22.43;;;15.70;;
15055;SDS011;7626;42.674;23.284;2024-03-02T12:17:53;22.80;;;15.30;;
15055;SDS011;7626;42.674;23.284;2024-03-02T12:20:20;23.87;;;15.40;;
15055;SDS011;7626;42.674;23.284;2024-03-02T12:22:48;23.97;;;14.93;;
15055;SDS011;7626;42.674;23.284;2024-03-02T12:25:15;24.40;;;16.30;;
15055;SDS011;7626;42.674;23.284;2024-03-02T12:27:42;23.87;;;14.90;;
15055;SDS011;7626;42.674;23.284;2024-03-02T12:30:09;23.73;;;15.30;;
15055;SDS011;7626;42.674;23.284;2024-03-02T12:32:37;24.67;;;15.73;;
15055;SDS011;7626;42.674;23.284;2024-03-02T12:35:06;24.00;;;15.60;;
15055;SDS011;7626;42.674;23.284;2024-03-02T12:37:33;25.37;;;15.30;;
15055;SDS011;7626;42.674;23.284;2024-03-02T12:39:59;23.97;;;16.07;;
15055;SDS011;7626;42.674;23.284;2024-03-02T12:42:26;24.30;;;15.87;;
15055;SDS011;7626;42.674;23.284;2024-03-02T12:44:52;24.43;;;16.27;;
15055;SDS011;7626;42.674;23.284;2024-03-02T12:47:20;23.53;;;15.50;;
15055;SDS011;7626;42.674;23.284;2024-03-02T12:49:47;24.77;;;15.27;;
15055;SDS011;7626;42.674;23.284;2024-03-02T12:52:15;23.60;;;14.93;;
15055;SDS011;7626;42.674;23.284;2024-03-02T12:54:42;21.43;;;15.47;;
15055;SDS011;7626;42.674;23.284;2024-03-02T12:57:09;22.47;;;15.47;;
15055;SDS011;7626;42.674;23.284;2024-03-02T12:59:35;24.97;;;16.00;;
15055;SDS011;7626;42.674;23.284;2024-03-02T13:02:02;24.57;;;15.60;;
15055;SDS011;7626;42.674;23.284;2024-03-02T13:04:29;23.33;;;15.47;;
15055;SDS011;7626;42.674;23.284;2024-03-02T13:06:56;21.03;;;14.93;;
15055;SDS011;7626;42.674;23.284;2024-03-02T13:09:24;23.53;;;15.00;;
15055;SDS011;7626;42.674;23.284;2024-03-02T13:11:51;22.27;;;15.43;;
15055;SDS011;7626;42.674;23.284;2024-03-02T13:14:18;21.67;;;15.07;;
15055;SDS011;7626;42.674;23.284;2024-03-02T13:16:44;24.67;;;15.27;;
15055;SDS011;7626;42.674;23.284;2024-03-02T13:19:12;22.80;;;15.73;;
15055;SDS011;7626;42.674;23.284;2024-03-02T13:21:38;21.53;;;15.03;;
15055;SDS011;7626;42.674;23.284;2024-03-02T13:24:05;22.87;;;14.83;;
15055;SDS011;7626;42.674;23.284;2024-03-02T13:26:33;22.53;;;14.67;;
15055;SDS011;7626;42.674;23.284;2024-03-02T13:29:00;23.60;;;15.03;;
15055;SDS011;7626;42.674;23.284;2024-03-02T13:31:27;22.00;;;14.97;;
15055;SDS011;7626;42.674;23.284;2024-03-02T13:33:53;24.30;;;15.47;;
15055;SDS011;7626;42.674;23.284;2024-03-02T13:36:20;21.60;;;14.00;;
15055;SDS011;7626;42.674;23.284;2024-03-02T13:38:46;22.47;;;15.13;;
15055;SDS011;7626;42.674;23.284;2024-03-02T13:41:14;22.70;;;15.57;;
15055;SDS011;7626;42.674;23.284;2024-03-02T13:43:42;21.03;;;14.70;;
15055;SDS011;7626;42.674;23.284;2024-03-02T13:46:10;21.93;;;14.67;;
15055;SDS011;7626;42.674;23.284;2024-03-02T13:48:37;24.07;;;15.13;;
15055;SDS011;7626;42.674;23.284;2024-03-02T13:51:04;21.90;;;14.27;;
15055;SDS011;7626;42.674;23.284;2024-03-02T13:53:30;26.97;;;18.17;;
15055;SDS011;7626;42.674;23.284;2024-03-02T13:55:57;28.33;;;18.73;;
15055;SDS011;7626;42.674;23.284;2024-03-02T13:58:24;27.70;;;17.90;;
15055;SDS011;7626;42.674;23.284;2024-03-02T14:00:52;24.57;;;17.43;;
15055;SDS011;7626;42.674;23.284;2024-03-02T14:03:18;27.10;;;18.70;;
15055;SDS011;7626;42.674;23.284;2024-03-02T14:05:45;31.87;;;20.43;;
15055;SDS011;7626;42.674;23.284;2024-03-02T14:08:12;28.10;;;18.87;;
15055;SDS011;7626;42.674;23.284;2024-03-02T14:10:39;28.17;;;18.47;;
15055;SDS011;7626;42.674;23.284;2024-03-02T14:13:05;25.53;;;17.37;;
15055;SDS011;7626;42.674;23.284;2024-03-02T14:15:32;26.87;;;18.50;;
15055;SDS011;7626;42.674;23.284;2024-03-02T14:17:59;23.50;;;16.07;;
15055;SDS011;7626;42.674;23.284;2024-03-02T14:20:26;27.77;;;18.77;;
15055;SDS011;7626;42.674;23.284;2024-03-02T14:22:52;29.43;;;19.73;;